Purdue University Airport
KLAF : now visible

Aeroporto :











RITROVATECI SU...

 
LOGIN :

Iscrizione | Disclaimer

   EN    FR    IT 

 









Sommario :    VFR   VFR Marginale   IFR   IFR Intensivo   IFR Molto Intensivo
Visibilità : 
Base nubi : 
>= 8 km
>= 3000ft
5 / 8 km
1000 / 3000 ft
1500m / 5 km
500 / 1000 ft
800 / 1500m
200 / 500 ft
< 800m
< 200 ft
Simboli :   Temporali  Nebbia  Neve Forte  Precipitazioni Forti  Vento > 20 kt






- Altitudine del aeroporto : 606 ft
- Codice IATA : LAF


KLAF - Purdue University

ULTIMO METAR :
  • 180454Z AUTO 00000KT 10SM CLR 04/03 A3005 RMK AO2 SLP177 T00440028 401440017

METARs OBSOLETI :
  • 180354Z AUTO 10004KT 10SM CLR 06/03 A3005 RMK AO2 SLP177 T00560028
  • 180254Z AUTO 05006KT 10SM CLR 06/02 A3005 RMK AO2 SLP177 T00610022 51013

TAF KLAF
Valido dal 18 a 06 ore il 19 a 06 ore UTC


180520Z 1806/1906 00000KT P6SM SKC
FM181700 17005KT P6SM SKC
FM190100 VRB03KT P6SM SKC
FM190200 15005KT P6SM SKC AMD LTD TO CLD VIS AND WIND TIL 181300



MetMap, La meteo Aeronautica in un colpo d'occhio ! - Copyright ORBIFLY Dicembre 2007 - Disclaimer

ORBIFLY MET'MAP TEAM :

Programmazione e sviluppo : Alexandra Zaïnal
Concezione e sviluppo : Baudouin d'Aumeries
Co-Programmazione e sviluppo : Marc-Olivier Méhu
Supporto tecnico e logistico : Manuel Goepfert
Aiuto per la traduzione : Arnaldo La Scala

Contatto : metmap@orbifly.com




FONTI E CREDITI :

   NOAA       Earth
Advisory